createdAt,value
2022-08-19T00:00:36.619Z,100.00
2022-08-19T00:01:39.355Z,100.00
2022-08-19T00:02:49.932Z,100.00
2022-08-19T00:03:52.503Z,100.00
2022-08-19T00:04:56.977Z,100.00
2022-08-19T00:05:58.790Z,100.00
2022-08-19T00:07:03.258Z,100.00
2022-08-19T00:08:05.071Z,100.00
2022-08-19T00:09:10.507Z,100.00
2022-08-19T00:10:13.161Z,100.00
2022-08-19T00:11:18.773Z,100.00
2022-08-19T00:12:28.092Z,100.00
2022-08-19T00:13:32.648Z,100.00
2022-08-19T00:14:34.483Z,100.00
2022-08-19T00:15:38.975Z,100.00
2022-08-19T00:16:42.317Z,100.00
2022-08-19T00:17:47.098Z,100.00
2022-08-19T00:18:49.157Z,100.00
2022-08-19T00:19:54.625Z,100.00
2022-08-19T00:20:56.593Z,100.00
2022-08-19T00:22:00.970Z,100.00
2022-08-19T00:23:05.136Z,100.00
2022-08-19T00:24:10.888Z,100.00
2022-08-19T00:25:12.835Z,100.00
2022-08-19T00:26:20.222Z,100.00
2022-08-19T00:27:26.073Z,100.00
2022-08-19T00:28:31.209Z,100.00
2022-08-19T00:29:33.044Z,100.00
2022-08-19T00:30:37.811Z,100.00
2022-08-19T00:31:39.860Z,100.00
2022-08-19T00:32:44.342Z,100.00
2022-08-19T00:33:46.149Z,100.00
2022-08-19T00:34:50.531Z,100.00
2022-08-19T00:35:55.976Z,100.00
2022-08-19T00:37:00.889Z,100.00
2022-08-19T00:38:02.798Z,100.00
2022-08-19T00:39:07.426Z,100.00
2022-08-19T00:40:09.389Z,100.00
2022-08-19T00:41:14.444Z,100.00
2022-08-19T00:42:16.733Z,100.00
2022-08-19T00:43:26.850Z,100.00
2022-08-19T00:44:29.638Z,100.00
2022-08-19T00:45:37.036Z,100.00
2022-08-19T00:46:39.982Z,100.00
2022-08-19T00:47:44.395Z,100.00
2022-08-19T00:48:46.284Z,100.00
2022-08-19T00:49:54.974Z,100.00
2022-08-19T00:50:56.890Z,100.00
2022-08-19T00:52:06.186Z,100.00
2022-08-19T00:53:08.278Z,100.00
2022-08-19T00:54:12.877Z,100.00
2022-08-19T00:55:20.593Z,100.00
2022-08-19T00:56:25.070Z,100.00
2022-08-19T00:57:39.283Z,100.00
2022-08-19T00:58:44.351Z,100.00
2022-08-19T00:59:56.390Z,100.00
2022-08-19T01:01:08.767Z,100.00
2022-08-19T01:02:10.648Z,100.00
2022-08-19T01:03:16.061Z,100.00
2022-08-19T01:04:21.195Z,100.00
2022-08-19T01:05:28.502Z,100.00
2022-08-19T01:06:32.578Z,100.00
2022-08-19T01:07:38.223Z,100.00
2022-08-19T01:08:42.906Z,100.00
2022-08-19T01:09:44.772Z,100.00
2022-08-19T01:10:50.399Z,100.00
2022-08-19T01:11:52.288Z,100.00
2022-08-19T01:12:56.871Z,100.00
2022-08-19T01:13:58.811Z,100.00
2022-08-19T01:15:03.925Z,100.00
2022-08-19T01:16:07.355Z,100.00
2022-08-19T01:17:13.339Z,100.00
2022-08-19T01:18:15.555Z,100.00
2022-08-19T01:19:22.782Z,100.00
2022-08-19T01:20:24.977Z,100.00
2022-08-19T01:21:41.890Z,100.00
2022-08-19T01:22:51.226Z,100.00
2022-08-19T01:23:55.774Z,100.00
2022-08-19T01:24:57.658Z,100.00
2022-08-19T01:26:03.746Z,100.00
2022-08-19T01:27:06.171Z,100.00
2022-08-19T01:28:18.873Z,100.00
2022-08-19T01:29:38.547Z,100.00
2022-08-19T01:30:44.519Z,100.00
2022-08-19T01:31:55.454Z,100.00
2022-08-19T01:32:57.465Z,100.00
2022-08-19T01:34:01.918Z,100.00
2022-08-19T01:35:04.734Z,100.00
2022-08-19T01:36:13.796Z,100.00
2022-08-19T01:37:16.108Z,100.00
2022-08-19T01:38:32.609Z,100.00
2022-08-19T01:39:35.284Z,100.00
2022-08-19T01:40:41.012Z,100.00
2022-08-19T01:41:42.872Z,100.00
2022-08-19T01:42:48.595Z,100.00
2022-08-19T01:44:13.942Z,100.00
2022-08-19T01:45:15.790Z,100.00
2022-08-19T01:46:20.107Z,100.00
2022-08-19T01:47:27.922Z,100.00
2022-08-19T01:48:33.634Z,100.00
2022-08-19T01:49:38.030Z,100.00
2022-08-19T01:50:39.862Z,100.00
2022-08-19T01:51:44.248Z,100.00
2022-08-19T01:52:46.083Z,100.00
2022-08-19T01:53:52.124Z,100.00
2022-08-19T01:54:54.024Z,100.00
2022-08-19T01:55:58.444Z,100.00
2022-08-19T01:57:05.121Z,100.00
2022-08-19T01:58:10.218Z,100.00
2022-08-19T01:59:13.755Z,100.00
2022-08-19T02:00:19.199Z,100.00
2022-08-19T02:01:21.228Z,100.00
2022-08-19T02:02:26.171Z,100.00
2022-08-19T02:03:28.044Z,100.00
2022-08-19T02:04:32.455Z,100.00
2022-08-19T02:05:34.315Z,100.00
2022-08-19T02:06:39.135Z,100.00
2022-08-19T02:07:41.388Z,100.00
2022-08-19T02:08:47.120Z,100.00
2022-08-19T02:09:49.669Z,100.00
2022-08-19T02:10:54.126Z,100.00
2022-08-19T02:11:56.881Z,100.00
2022-08-19T02:13:01.337Z,100.00
2022-08-19T02:14:04.497Z,100.00
2022-08-19T02:15:09.166Z,100.00
2022-08-19T02:16:11.072Z,100.00
2022-08-19T02:17:15.581Z,100.00
2022-08-19T02:18:17.409Z,100.00
2022-08-19T02:19:21.883Z,100.00
2022-08-19T02:20:23.745Z,100.00
2022-08-19T02:21:28.182Z,100.00
2022-08-19T02:22:30.015Z,100.00
2022-08-19T02:23:35.059Z,100.00
2022-08-19T02:24:36.954Z,100.00
2022-08-19T02:25:42.002Z,100.00
2022-08-19T02:26:43.829Z,100.00
2022-08-19T02:27:48.272Z,100.00
2022-08-19T02:28:51.744Z,100.00
2022-08-19T02:29:56.202Z,100.00
2022-08-19T02:30:58.023Z,100.00
2022-08-19T02:32:02.421Z,100.00
2022-08-19T02:33:04.352Z,100.00
2022-08-19T02:34:08.858Z,100.00
2022-08-19T02:35:12.103Z,100.00
2022-08-19T02:36:20.680Z,100.00
2022-08-19T02:37:38.127Z,100.00
2022-08-19T02:38:42.811Z,100.00
2022-08-19T02:39:48.913Z,100.00
2022-08-19T02:41:04.167Z,100.00
2022-08-19T02:42:08.745Z,100.00
2022-08-19T02:43:10.685Z,100.00
2022-08-19T02:44:29.283Z,100.00
2022-08-19T02:45:33.539Z,100.00
2022-08-19T02:46:38.181Z,100.00
2022-08-19T02:47:40.050Z,100.00
2022-08-19T02:48:44.629Z,100.00
2022-08-19T02:49:46.779Z,100.00
2022-08-19T02:50:56.455Z,100.00
2022-08-19T02:51:58.371Z,100.00
2022-08-19T02:53:02.763Z,100.00
2022-08-19T02:54:05.118Z,100.00
2022-08-19T02:55:10.015Z,100.00
2022-08-19T02:56:11.798Z,100.00
2022-08-19T02:57:16.338Z,100.00
2022-08-19T02:58:18.417Z,100.00
2022-08-19T02:59:24.165Z,100.00
2022-08-19T03:00:26.043Z,100.00
2022-08-19T03:01:34.842Z,100.00
2022-08-19T03:02:36.687Z,100.00
2022-08-19T03:03:41.477Z,100.00
2022-08-19T03:04:43.458Z,100.00
2022-08-19T03:05:56.241Z,100.00
2022-08-19T03:07:09.308Z,100.00
2022-08-19T03:08:16.138Z,100.00
2022-08-19T03:09:18.953Z,100.00
2022-08-19T03:10:23.599Z,100.00
2022-08-19T03:11:26.904Z,100.00
2022-08-19T03:12:31.397Z,100.00
2022-08-19T03:13:33.566Z,100.00
2022-08-19T03:14:38.293Z,100.00
2022-08-19T03:15:40.815Z,100.00
2022-08-19T03:16:49.613Z,100.00
2022-08-19T03:17:51.492Z,100.00
2022-08-19T03:18:56.131Z,100.00
2022-08-19T03:19:57.939Z,100.00
2022-08-19T03:21:02.435Z,100.00
2022-08-19T03:22:05.224Z,100.00
2022-08-19T03:23:09.719Z,100.00
2022-08-19T03:24:11.801Z,100.00
2022-08-19T03:25:16.829Z,100.00
2022-08-19T03:26:18.721Z,100.00
2022-08-19T03:27:23.442Z,100.00
2022-08-19T03:28:25.359Z,100.00
2022-08-19T03:29:31.775Z,100.00
2022-08-19T03:30:33.691Z,100.00
2022-08-19T03:31:43.352Z,100.00
2022-08-19T03:32:52.980Z,100.00
2022-08-19T03:33:59.007Z,100.00
2022-08-19T03:35:03.551Z,100.00
2022-08-19T03:36:12.632Z,100.00
2022-08-19T03:37:14.474Z,100.00
2022-08-19T03:38:18.894Z,100.00
2022-08-19T03:39:20.687Z,100.00
2022-08-19T03:40:25.155Z,100.00
2022-08-19T03:41:34.343Z,100.00
2022-08-19T03:42:49.683Z,100.00
2022-08-19T03:43:52.111Z,100.00
2022-08-19T03:44:56.637Z,100.00
2022-08-19T03:46:05.768Z,100.00
2022-08-19T03:47:10.193Z,100.00
2022-08-19T03:48:12.035Z,100.00
2022-08-19T03:49:18.318Z,100.00
2022-08-19T03:50:23.119Z,100.00
2022-08-19T03:51:31.125Z,100.00
2022-08-19T03:52:35.678Z,100.00
2022-08-19T03:53:37.508Z,100.00
2022-08-19T03:54:43.117Z,100.00
2022-08-19T03:55:45.544Z,100.00
2022-08-19T03:56:51.389Z,100.00
2022-08-19T03:57:57.360Z,100.00
2022-08-19T03:59:03.418Z,100.00
2022-08-19T04:00:13.704Z,100.00
2022-08-19T04:01:19.720Z,100.00
2022-08-19T04:02:24.178Z,100.00
2022-08-19T04:03:27.816Z,100.00
2022-08-19T04:04:32.555Z,100.00
2022-08-19T04:05:34.445Z,100.00
2022-08-19T04:06:40.044Z,100.00
2022-08-19T04:07:42.088Z,100.00
2022-08-19T04:08:46.954Z,100.00
2022-08-19T04:09:49.319Z,100.00
2022-08-19T04:10:53.712Z,100.00
2022-08-19T04:11:57.936Z,100.00
2022-08-19T04:13:02.565Z,100.00
2022-08-19T04:14:04.564Z,100.00
2022-08-19T04:15:09.489Z,100.00
2022-08-19T04:16:11.612Z,100.00
2022-08-19T04:17:16.172Z,100.00
2022-08-19T04:18:18.174Z,100.00
2022-08-19T04:19:24.029Z,100.00
2022-08-19T04:20:25.832Z,100.00
2022-08-19T04:21:30.383Z,100.00
2022-08-19T04:22:32.227Z,100.00
2022-08-19T04:23:37.508Z,100.00
2022-08-19T04:24:46.509Z,100.00
2022-08-19T04:25:50.901Z,100.00
2022-08-19T04:26:52.787Z,100.00
2022-08-19T04:27:57.230Z,100.00
2022-08-19T04:29:00.106Z,100.00
2022-08-19T04:30:04.516Z,100.00
2022-08-19T04:31:06.361Z,100.00
2022-08-19T04:32:10.798Z,100.00
2022-08-19T04:33:13.323Z,100.00
2022-08-19T04:34:18.756Z,100.00
2022-08-19T04:35:24.462Z,100.00
2022-08-19T04:36:34.173Z,100.00
2022-08-19T04:37:36.025Z,100.00
2022-08-19T04:38:40.538Z,100.00
2022-08-19T04:39:58.832Z,100.00
2022-08-19T04:41:19.689Z,100.00
2022-08-19T04:42:36.565Z,100.00
2022-08-19T04:43:41.776Z,100.00
2022-08-19T04:44:46.317Z,100.00
2022-08-19T04:45:56.380Z,100.00
2022-08-19T04:46:58.712Z,100.00
2022-08-19T04:48:26.254Z,100.00
2022-08-19T04:49:28.376Z,100.00
2022-08-19T04:50:30.352Z,100.00
2022-08-19T04:51:35.378Z,100.00
2022-08-19T04:52:37.208Z,100.00
2022-08-19T04:53:41.746Z,100.00
2022-08-19T04:54:43.662Z,100.00
2022-08-19T04:55:48.043Z,100.00
2022-08-19T04:56:51.084Z,100.00
2022-08-19T04:57:55.526Z,100.00
2022-08-19T04:58:57.664Z,100.00
2022-08-19T05:00:02.249Z,100.00
2022-08-19T05:01:04.816Z,100.00
2022-08-19T05:02:10.306Z,100.00
2022-08-19T05:03:12.117Z,100.00
2022-08-19T05:04:16.553Z,100.00
2022-08-19T05:05:23.353Z,100.00
2022-08-19T05:06:27.788Z,100.00
2022-08-19T05:07:29.655Z,100.00
2022-08-19T05:08:34.879Z,100.00
2022-08-19T05:09:57.862Z,100.00
2022-08-19T05:11:01.182Z,100.00
2022-08-19T05:12:03.217Z,100.00
2022-08-19T05:13:10.141Z,100.00
2022-08-19T05:14:13.498Z,100.00
2022-08-19T05:15:18.032Z,100.00
2022-08-19T05:16:21.327Z,100.00
2022-08-19T05:17:27.975Z,100.00
2022-08-19T05:18:47.942Z,100.00
2022-08-19T05:20:04.781Z,100.00
2022-08-19T05:21:23.045Z,100.00
2022-08-19T05:22:36.723Z,100.00
2022-08-19T05:23:41.552Z,100.00
2022-08-19T05:25:02.409Z,100.00
2022-08-19T05:26:07.935Z,100.00
2022-08-19T05:27:09.765Z,100.00
2022-08-19T05:28:14.202Z,100.00
2022-08-19T05:29:16.847Z,100.00
2022-08-19T05:30:33.471Z,100.00
2022-08-19T05:31:45.907Z,100.00
2022-08-19T05:32:47.740Z,100.00
2022-08-19T05:33:52.214Z,100.00
2022-08-19T05:34:54.054Z,100.00
2022-08-19T05:35:58.529Z,100.00
2022-08-19T05:37:00.949Z,100.00
2022-08-19T05:38:05.648Z,100.00
2022-08-19T05:39:08.558Z,100.00
2022-08-19T05:40:14.314Z,100.00
2022-08-19T05:41:16.164Z,100.00
2022-08-19T05:42:21.589Z,100.00
2022-08-19T05:43:23.500Z,100.00
2022-08-19T05:44:32.367Z,100.00
2022-08-19T05:45:34.535Z,100.00
2022-08-19T05:46:40.728Z,100.00
2022-08-19T05:47:46.101Z,100.00
2022-08-19T05:48:47.920Z,100.00
2022-08-19T05:49:53.531Z,100.00
2022-08-19T05:50:55.338Z,100.00
2022-08-19T05:52:00.541Z,100.00
2022-08-19T05:53:04.930Z,100.00
2022-08-19T05:54:08.326Z,100.00
2022-08-19T05:55:13.245Z,100.00
2022-08-19T05:56:16.998Z,100.00
2022-08-19T05:57:21.993Z,100.00
2022-08-19T05:58:25.082Z,100.00
2022-08-19T05:59:32.613Z,100.00
2022-08-19T06:00:34.958Z,100.00
2022-08-19T06:01:39.656Z,100.00
2022-08-19T06:02:44.486Z,100.00
2022-08-19T06:03:46.494Z,100.00
2022-08-19T06:04:50.876Z,100.00
2022-08-19T06:05:53.424Z,100.00
2022-08-19T06:06:59.330Z,100.00
2022-08-19T06:08:01.175Z,100.00
2022-08-19T06:09:09.038Z,100.00
2022-08-19T06:10:11.784Z,100.00
2022-08-19T06:11:17.864Z,100.00
2022-08-19T06:12:31.700Z,100.00
2022-08-19T06:13:33.531Z,100.00
2022-08-19T06:14:41.959Z,100.00
2022-08-19T06:15:45.413Z,100.00
2022-08-19T06:16:49.852Z,100.00
2022-08-19T06:17:53.173Z,100.00
2022-08-19T06:19:00.044Z,100.00
2022-08-19T06:20:02.447Z,100.00
2022-08-19T06:21:06.901Z,100.00
2022-08-19T06:22:13.106Z,100.00
2022-08-19T06:23:16.265Z,100.00
2022-08-19T06:24:24.442Z,100.00
2022-08-19T06:25:30.529Z,100.00
2022-08-19T06:26:32.563Z,100.00
2022-08-19T06:27:42.075Z,100.00
2022-08-19T06:28:50.380Z,100.00
2022-08-19T06:29:55.141Z,100.00
2022-08-19T06:30:56.991Z,100.00
2022-08-19T06:32:02.343Z,100.00
2022-08-19T06:33:04.150Z,100.00
2022-08-19T06:34:08.794Z,100.00
2022-08-19T06:35:10.788Z,100.00
2022-08-19T06:36:28.620Z,100.00
2022-08-19T06:37:33.030Z,100.00
2022-08-19T06:38:34.902Z,100.00
2022-08-19T06:39:40.575Z,100.00
2022-08-19T06:42:10.996Z,100.00
2022-08-19T06:43:16.938Z,100.00
2022-08-19T06:44:20.877Z,100.00
2022-08-19T06:45:34.536Z,100.00
2022-08-19T06:46:37.529Z,100.00
2022-08-19T06:47:49.423Z,100.00
2022-08-19T06:48:54.364Z,100.00
2022-08-19T06:50:03.551Z,100.00
2022-08-19T06:51:08.785Z,100.00
2022-08-19T06:52:18.072Z,100.00
2022-08-19T06:53:20.277Z,100.00
2022-08-19T06:54:30.937Z,100.00
2022-08-19T06:55:33.362Z,100.00
2022-08-19T06:56:38.134Z,100.00
2022-08-19T06:57:39.999Z,100.00
2022-08-19T06:58:44.440Z,100.00
2022-08-19T06:59:48.894Z,100.00
2022-08-19T07:00:51.722Z,100.00
2022-08-19T07:01:56.428Z,100.00
2022-08-19T07:03:03.015Z,100.00
2022-08-19T07:04:13.695Z,100.00
2022-08-19T07:05:18.255Z,100.00
2022-08-19T07:06:44.007Z,100.00
2022-08-19T07:07:49.196Z,100.00
2022-08-19T07:08:52.870Z,100.00
2022-08-19T07:10:01.973Z,100.00
2022-08-19T07:11:10.850Z,100.00
2022-08-19T07:12:16.966Z,100.00
2022-08-19T07:13:18.787Z,100.00
2022-08-19T07:14:24.127Z,100.00
2022-08-19T07:15:25.955Z,100.00
2022-08-19T07:16:30.577Z,100.00
2022-08-19T07:17:34.516Z,100.00
2022-08-19T07:18:39.199Z,100.00
2022-08-19T07:19:45.743Z,100.00
2022-08-19T07:20:51.854Z,100.00
2022-08-19T07:21:57.278Z,100.00
2022-08-19T07:22:59.327Z,100.00
2022-08-19T07:24:06.782Z,100.00
2022-08-19T07:25:14.266Z,100.00
2022-08-19T07:26:17.430Z,100.00
2022-08-19T07:27:25.097Z,100.00
2022-08-19T07:28:27.818Z,100.00
2022-08-19T07:29:34.400Z,100.00
2022-08-19T07:30:37.754Z,100.00
2022-08-19T07:31:43.424Z,100.00
2022-08-19T07:32:45.576Z,100.00
2022-08-19T07:33:51.226Z,100.00
2022-08-19T07:34:56.477Z,100.00
2022-08-19T07:36:01.150Z,100.00
2022-08-19T07:37:06.140Z,100.00
2022-08-19T07:38:08.527Z,100.00
2022-08-19T07:39:18.475Z,100.00
2022-08-19T07:40:20.361Z,100.00
2022-08-19T07:41:26.455Z,100.00
2022-08-19T07:42:31.097Z,100.00
2022-08-19T07:43:34.772Z,100.00
2022-08-19T07:45:43.418Z,100.00
2022-08-19T07:46:51.567Z,100.00
2022-08-19T07:47:57.848Z,100.00
2022-08-19T07:48:59.890Z,100.00
2022-08-19T07:50:05.426Z,100.00
2022-08-19T07:51:14.357Z,100.00
2022-08-19T07:52:21.100Z,100.00
2022-08-19T07:53:23.375Z,100.00
2022-08-19T07:54:28.471Z,100.00
2022-08-19T07:55:42.454Z,100.00
2022-08-19T07:56:48.070Z,100.00
2022-08-19T07:57:49.900Z,100.00
2022-08-19T08:00:23.165Z,100.00
2022-08-19T08:01:30.297Z,100.00
2022-08-19T08:02:32.224Z,100.00
2022-08-19T08:03:49.182Z,100.00
2022-08-19T08:05:06.149Z,100.00
2022-08-19T08:06:23.153Z,100.00
2022-08-19T08:07:40.022Z,100.00
2022-08-19T08:09:03.289Z,100.00
2022-08-19T08:10:21.101Z,100.00
2022-08-19T08:11:23.965Z,100.00
2022-08-19T08:12:34.658Z,100.00
2022-08-19T08:13:37.009Z,100.00
2022-08-19T08:14:47.070Z,100.00
2022-08-19T08:15:48.900Z,100.00
2022-08-19T08:16:56.642Z,100.00
2022-08-19T08:18:03.835Z,100.00
2022-08-19T08:19:07.224Z,100.00
2022-08-19T08:20:19.259Z,100.00
2022-08-19T08:21:21.113Z,100.00
2022-08-19T08:22:38.335Z,100.00
2022-08-19T08:23:43.929Z,100.00
2022-08-19T08:24:45.826Z,100.00
2022-08-19T08:25:50.274Z,100.00
2022-08-19T08:26:52.339Z,100.00
2022-08-19T08:28:02.390Z,100.00
2022-08-19T08:29:12.310Z,100.00
2022-08-19T08:30:19.547Z,100.00
2022-08-19T08:31:24.514Z,100.00
2022-08-19T08:32:26.400Z,100.00
2022-08-19T08:33:33.664Z,100.00
2022-08-19T08:34:38.074Z,100.00
2022-08-19T08:35:43.252Z,100.00
2022-08-19T08:36:46.308Z,100.00
2022-08-19T08:37:51.491Z,100.00
2022-08-19T08:40:00.350Z,100.00
2022-08-19T08:41:07.764Z,100.00
2022-08-19T08:42:16.900Z,100.00
2022-08-19T08:43:32.857Z,100.00
2022-08-19T08:44:37.713Z,100.00
2022-08-19T08:45:44.435Z,100.00
2022-08-19T08:46:48.098Z,100.00
2022-08-19T08:47:53.296Z,100.00
2022-08-19T08:48:55.778Z,100.00
2022-08-19T08:50:07.900Z,100.00
2022-08-19T08:51:11.478Z,100.00
2022-08-19T08:52:24.626Z,100.00
2022-08-19T08:53:35.687Z,100.00
2022-08-19T08:54:54.846Z,100.00
2022-08-19T08:56:01.353Z,100.00
2022-08-19T08:57:11.540Z,100.00
2022-08-19T08:58:16.903Z,100.00
2022-08-19T08:59:37.531Z,100.00
2022-08-19T09:00:41.292Z,100.00
2022-08-19T09:01:45.738Z,100.00
2022-08-19T09:02:50.989Z,100.00
2022-08-19T09:03:56.041Z,100.00
2022-08-19T09:05:05.059Z,100.00
2022-08-19T09:06:25.912Z,100.00
2022-08-19T09:07:35.855Z,100.00
2022-08-19T09:08:41.212Z,100.00
2022-08-19T09:09:56.101Z,100.00
2022-08-19T09:10:58.630Z,100.00
2022-08-19T09:12:26.728Z,100.00
2022-08-19T09:13:37.668Z,100.00
2022-08-19T09:14:51.259Z,100.00
2022-08-19T09:15:58.390Z,100.00
2022-08-19T09:17:00.434Z,100.00
2022-08-19T09:18:07.169Z,100.00
2022-08-19T09:19:09.635Z,100.00
2022-08-19T09:20:14.450Z,100.00
2022-08-19T09:21:16.600Z,100.00
2022-08-19T09:22:25.545Z,100.00
2022-08-19T09:23:30.927Z,100.00
2022-08-19T09:24:32.731Z,100.00
2022-08-19T09:25:37.128Z,100.00
2022-08-19T09:26:48.605Z,100.00
2022-08-19T09:28:02.320Z,100.00
2022-08-19T09:29:06.234Z,100.00
2022-08-19T09:30:11.654Z,100.00
2022-08-19T09:31:20.689Z,100.00
2022-08-19T09:32:26.581Z,100.00
2022-08-19T09:33:32.149Z,100.00
2022-08-19T09:34:37.776Z,100.00
2022-08-19T09:35:50.014Z,100.00
2022-08-19T09:37:00.403Z,100.00
2022-08-19T09:38:04.838Z,100.00
2022-08-19T09:39:14.896Z,100.00
2022-08-19T09:40:21.552Z,98.04
2022-08-19T09:41:27.358Z,99.36
2022-08-19T09:42:35.308Z,98.06
2022-08-19T09:43:44.293Z,97.16
2022-08-19T09:44:49.651Z,97.32
2022-08-19T09:45:54.290Z,98.68
2022-08-19T09:46:58.689Z,99.32
2022-08-19T09:48:00.565Z,98.14
2022-08-19T09:49:07.248Z,99.44
2022-08-19T09:50:10.027Z,99.94
2022-08-19T09:51:16.617Z,99.82
2022-08-19T09:52:21.641Z,100.00
2022-08-19T09:53:25.647Z,97.30
2022-08-19T09:54:30.172Z,94.90
2022-08-19T09:55:32.762Z,95.29
2022-08-19T09:56:37.234Z,95.51
2022-08-19T09:57:39.090Z,96.08
2022-08-19T09:58:43.836Z,98.38
2022-08-19T09:59:49.333Z,99.69
2022-08-19T10:00:51.818Z,100.00
2022-08-19T10:01:56.272Z,98.44
2022-08-19T10:03:08.629Z,95.55
2022-08-19T10:04:19.666Z,93.92
2022-08-19T10:05:37.498Z,95.29
2022-08-19T10:06:45.564Z,96.33
2022-08-19T10:07:48.914Z,98.76
2022-08-19T10:08:53.896Z,98.93
2022-08-19T10:09:55.750Z,95.27
2022-08-19T10:11:28.340Z,96.26
2022-08-19T10:12:25.680Z,95.26
2022-08-19T10:13:29.466Z,95.29
2022-08-19T10:14:34.131Z,95.36
2022-08-19T10:15:47.415Z,94.37
2022-08-19T10:16:53.140Z,96.21
2022-08-19T10:17:55.272Z,92.97
2022-08-19T10:19:00.353Z,91.38
2022-08-19T10:20:08.062Z,92.28
2022-08-19T10:21:22.707Z,96.89
2022-08-19T10:22:27.378Z,94.05
2022-08-19T10:23:33.617Z,92.28
2022-08-19T10:24:35.782Z,91.74
2022-08-19T10:25:40.364Z,90.59
2022-08-19T10:26:57.196Z,89.89
2022-08-19T10:28:04.653Z,90.52
2022-08-19T10:29:32.768Z,90.69
2022-08-19T10:30:39.414Z,88.48
2022-08-19T10:32:00.534Z,87.66
2022-08-19T10:33:11.007Z,88.56
2022-08-19T10:34:27.090Z,89.26
2022-08-19T10:35:33.496Z,88.82
2022-08-19T10:36:56.286Z,87.39
2022-08-19T10:38:02.542Z,88.28
2022-08-19T10:39:09.530Z,88.08
2022-08-19T10:40:12.478Z,88.23
2022-08-19T10:41:18.438Z,87.76
2022-08-19T10:42:20.301Z,84.41
2022-08-19T10:43:24.706Z,85.30
2022-08-19T10:44:32.657Z,83.47
2022-08-19T10:45:38.157Z,83.34
2022-08-19T10:46:56.864Z,82.51
2022-08-19T10:48:01.672Z,79.33
2022-08-19T10:49:07.695Z,80.82
2022-08-19T10:50:28.764Z,83.36
2022-08-19T10:51:48.127Z,82.21
2022-08-19T10:52:50.947Z,80.16
2022-08-19T10:53:55.325Z,80.19
2022-08-19T10:55:13.038Z,79.92
2022-08-19T10:56:29.991Z,80.56
2022-08-19T10:57:52.376Z,82.42
2022-08-19T10:58:58.977Z,85.20
2022-08-19T11:00:00.784Z,82.41
2022-08-19T11:01:05.223Z,80.12
2022-08-19T11:02:13.038Z,80.85
2022-08-19T11:03:14.901Z,80.16
2022-08-19T11:04:19.753Z,82.68
2022-08-19T11:05:24.261Z,83.91
2022-08-19T11:06:29.021Z,83.53
2022-08-19T11:07:30.895Z,83.57
2022-08-19T11:08:35.981Z,82.66
2022-08-19T11:09:41.670Z,83.74
2022-08-19T11:10:43.811Z,81.89
2022-08-19T11:11:55.151Z,83.23
2022-08-19T11:12:57.264Z,80.69
2022-08-19T11:14:01.893Z,79.95
2022-08-19T11:15:04.288Z,79.19
2022-08-19T11:16:18.549Z,78.24
2022-08-19T11:17:20.552Z,77.38
2022-08-19T11:18:25.064Z,76.52
2022-08-19T11:19:26.918Z,78.31
2022-08-19T11:20:31.617Z,79.51
2022-08-19T11:21:34.999Z,79.75
2022-08-19T11:22:41.667Z,79.98
2022-08-19T11:23:44.539Z,78.31
2022-08-19T11:24:49.036Z,76.33
2022-08-19T11:25:50.825Z,78.24
2022-08-19T11:26:58.651Z,77.24
2022-08-19T11:28:00.496Z,78.72
2022-08-19T11:29:04.928Z,77.47
2022-08-19T11:30:08.416Z,77.88
2022-08-19T11:31:18.444Z,75.99
2022-08-19T11:32:20.263Z,74.83
2022-08-19T11:33:27.483Z,74.02
2022-08-19T11:34:29.486Z,75.46
2022-08-19T11:35:34.046Z,77.81
2022-08-19T11:36:41.563Z,77.32
2022-08-19T11:37:43.363Z,75.88
2022-08-19T11:38:49.446Z,72.77
2022-08-19T11:39:54.633Z,72.63
2022-08-19T11:40:57.343Z,72.78
2022-08-19T11:42:02.522Z,71.80
2022-08-19T11:43:04.402Z,73.18
2022-08-19T11:44:08.965Z,71.91
2022-08-19T11:45:11.629Z,72.64
2022-08-19T11:46:16.769Z,72.45
2022-08-19T11:47:18.559Z,72.40
2022-08-19T11:48:23.800Z,73.80
2022-08-19T11:49:25.635Z,73.53
2022-08-19T11:50:30.019Z,74.48
2022-08-19T11:51:32.535Z,74.08
2022-08-19T11:52:37.567Z,75.70
2022-08-19T11:53:39.563Z,72.54
2022-08-19T11:54:43.924Z,73.58
2022-08-19T11:55:45.954Z,74.20
2022-08-19T11:56:50.393Z,74.93
2022-08-19T11:57:52.288Z,76.63
2022-08-19T11:58:57.753Z,77.99
2022-08-19T11:59:59.638Z,77.87
2022-08-19T12:01:04.108Z,77.03
2022-08-19T12:02:05.965Z,76.79
2022-08-19T12:03:10.589Z,77.21
2022-08-19T12:04:12.575Z,76.53
2022-08-19T12:05:17.089Z,75.78
2022-08-19T12:06:20.022Z,75.74
2022-08-19T12:07:25.736Z,76.56
2022-08-19T12:08:27.700Z,77.50
2022-08-19T12:09:35.350Z,77.16
2022-08-19T12:10:37.137Z,70.97
2022-08-19T12:11:42.240Z,70.56
2022-08-19T12:12:47.390Z,72.78
2022-08-19T12:14:00.340Z,71.65
2022-08-19T12:15:02.235Z,71.24
2022-08-19T12:16:13.675Z,72.67
2022-08-19T12:17:15.455Z,75.01
2022-08-19T12:18:19.908Z,74.50
2022-08-19T12:19:22.352Z,75.46
2022-08-19T12:20:27.413Z,74.45
2022-08-19T12:21:29.651Z,73.85
2022-08-19T12:22:34.078Z,72.99
2022-08-19T12:23:38.506Z,72.20
2022-08-19T12:24:43.014Z,74.26
2022-08-19T12:25:49.509Z,71.02
2022-08-19T12:26:55.036Z,70.99
2022-08-19T12:27:57.780Z,71.82
2022-08-19T12:29:02.944Z,73.50
2022-08-19T12:30:05.507Z,73.83
2022-08-19T12:31:10.158Z,74.88
2022-08-19T12:32:14.574Z,74.05
2022-08-19T12:33:16.374Z,73.69
2022-08-19T12:34:21.166Z,74.07
2022-08-19T12:35:25.732Z,74.44
2022-08-19T12:36:27.617Z,73.56
2022-08-19T12:37:33.581Z,73.35
2022-08-19T12:38:35.771Z,73.68
2022-08-19T12:39:41.000Z,75.27
2022-08-19T12:40:46.009Z,75.20
2022-08-19T12:41:54.501Z,75.29
2022-08-19T12:43:00.207Z,74.99
2022-08-19T12:44:02.016Z,75.13
2022-08-19T12:45:06.643Z,74.65
2022-08-19T12:46:11.489Z,73.25
2022-08-19T12:47:18.064Z,75.23
2022-08-19T12:48:33.690Z,72.21
2022-08-19T12:49:53.161Z,72.15
2022-08-19T12:50:59.204Z,73.66
2022-08-19T12:52:01.649Z,74.01
2022-08-19T12:53:06.715Z,73.70
2022-08-19T12:54:08.561Z,73.92
2022-08-19T12:55:13.239Z,75.46
2022-08-19T12:56:15.812Z,75.41
2022-08-19T12:57:20.239Z,75.79
2022-08-19T12:58:27.300Z,76.16
2022-08-19T12:59:31.985Z,74.33
2022-08-19T13:00:33.906Z,71.58
2022-08-19T13:01:39.158Z,70.91
2022-08-19T13:02:41.760Z,69.59
2022-08-19T13:03:46.142Z,68.94
2022-08-19T13:04:48.021Z,70.15
2022-08-19T13:05:54.321Z,70.26
2022-08-19T13:06:56.139Z,71.27
2022-08-19T13:08:01.235Z,69.79
2022-08-19T13:09:05.937Z,69.41
2022-08-19T13:10:08.829Z,70.78
2022-08-19T13:11:14.934Z,72.38
2022-08-19T13:12:16.811Z,72.95
2022-08-19T13:13:21.214Z,75.37
2022-08-19T13:14:23.158Z,76.21
2022-08-19T13:15:29.578Z,74.82
2022-08-19T13:16:34.343Z,74.01
2022-08-19T13:17:36.688Z,74.52
2022-08-19T13:18:41.718Z,73.62
2022-08-19T13:19:43.589Z,72.69
2022-08-19T13:20:52.923Z,72.17
2022-08-19T13:21:57.820Z,72.56
2022-08-19T13:23:02.302Z,71.13
2022-08-19T13:24:07.318Z,71.59
2022-08-19T13:25:09.456Z,72.00
2022-08-19T13:26:14.295Z,72.98
2022-08-19T13:27:16.232Z,72.72
2022-08-19T13:28:20.692Z,72.14
2022-08-19T13:29:45.865Z,73.52
2022-08-19T13:31:03.558Z,73.94
2022-08-19T13:32:20.438Z,72.49
2022-08-19T13:33:26.680Z,74.27
2022-08-19T13:34:30.960Z,74.50
2022-08-19T13:35:35.762Z,73.40
2022-08-19T13:36:38.031Z,73.79
2022-08-19T13:37:45.782Z,73.97
2022-08-19T13:38:50.162Z,73.58
2022-08-19T13:39:52.757Z,73.45
2022-08-19T13:40:57.663Z,70.95
2022-08-19T13:42:01.678Z,71.99
2022-08-19T13:43:17.769Z,71.52
2022-08-19T13:44:30.440Z,71.86
2022-08-19T13:45:35.076Z,70.79
2022-08-19T13:46:39.489Z,72.53
2022-08-19T13:47:43.706Z,72.93
2022-08-19T13:48:48.515Z,71.77
2022-08-19T13:49:52.957Z,70.04
2022-08-19T13:50:55.165Z,69.85
2022-08-19T13:51:59.716Z,69.20
2022-08-19T13:53:02.166Z,69.47
2022-08-19T13:54:06.586Z,69.23